メインページ
METAR-TAF:

METAR-TAF

空港 :

キュラソー島, オランダ領アンティル

ハト国際空港

緯度: 12-12N, 経度: 068-58W, 海抜: 9m

現時点の気象観測

当レポートは1時間5分前の10:00(UTC)に作成
南/南西の風 2kt
気温 26°C
湿度 89%
気圧 1011 hPa
視程10km以上
高度1800ftの雲はほとんどない

METAR: TNCC 201000Z 20002KT 9999 FEW018 26/24 Q1011 NOSIG

時間: 07:05 (11:05 UTC)

予報

当レポートは7時間35分前の03:30(UTC)に作成
予報は20日の 06時(UTC)から 21日の 06時(UTC)まで有効
変向風 3kt
視程10km以上
高度1800ftの雲はほとんどない
20日の 06時(UTC)から 20日の 12時(UTC)まで一時的に
高度1500ftの千切れ雲あり
20日の 19時(UTC)から 20日の 21時(UTC)まで徐々に
北/北東の風 10kt

TAF: TNCC 200330Z 2006/2106 VRB03KT 9999 FEW018 TEMPO 2006/2012 BKN015 BECMG 2019/2021 02010KT

4,000以上の空港の気象観測と天気予報(METAR報とTAF報)

利用可能な観測所は地図上に黄色い丸と赤い丸で示す。

丸の上にカーソルを重ねると観測所名を参照できる。

次にクリックすると気象観測と天気予報を参照できる。

マップの切り替え:黒色「×」印の緑ボタンをクリックして拡大、「-」印の緑ボタンをクリックして縮小、緑色の三角印をクリックして隣りの地図に切り替え


METAR-TAF: